sensor_id;sensor_type;location;lat;lon;timestamp;P1;durP1;ratioP1;P2;durP2;ratioP2
70270;SDS011;57680;54.292;18.598;2022-09-03T00:00:24;4.65;;;2.00;;
70270;SDS011;57680;54.292;18.598;2022-09-03T00:05:37;5.57;;;2.10;;
70270;SDS011;57680;54.292;18.598;2022-09-03T00:08:14;5.13;;;1.70;;
70270;SDS011;57680;54.292;18.598;2022-09-03T00:13:30;6.97;;;2.08;;
70270;SDS011;57680;54.292;18.598;2022-09-03T00:15:59;5.93;;;2.10;;
70270;SDS011;57680;54.292;18.598;2022-09-03T00:18:28;5.30;;;2.03;;
70270;SDS011;57680;54.292;18.598;2022-09-03T00:20:57;6.47;;;1.70;;
70270;SDS011;57680;54.292;18.598;2022-09-03T00:23:32;3.83;;;1.80;;
70270;SDS011;57680;54.292;18.598;2022-09-03T00:28:39;6.03;;;2.45;;
70270;SDS011;57680;54.292;18.598;2022-09-03T00:34:30;5.20;;;2.07;;
70270;SDS011;57680;54.292;18.598;2022-09-03T00:36:59;5.63;;;2.30;;
70270;SDS011;57680;54.292;18.598;2022-09-03T00:39:26;5.50;;;2.30;;
70270;SDS011;57680;54.292;18.598;2022-09-03T00:53:27;4.70;;;1.93;;
70270;SDS011;57680;54.292;18.598;2022-09-03T00:56:12;6.30;;;2.42;;
70270;SDS011;57680;54.292;18.598;2022-09-03T01:01:27;4.45;;;2.00;;
70270;SDS011;57680;54.292;18.598;2022-09-03T01:04:21;5.75;;;2.08;;
70270;SDS011;57680;54.292;18.598;2022-09-03T01:07:02;6.43;;;2.00;;
70270;SDS011;57680;54.292;18.598;2022-09-03T01:09:57;5.03;;;1.70;;
70270;SDS011;57680;54.292;18.598;2022-09-03T01:12:43;6.13;;;1.80;;
70270;SDS011;57680;54.292;18.598;2022-09-03T01:29:33;4.93;;;1.60;;
70270;SDS011;57680;54.292;18.598;2022-09-03T01:35:22;4.57;;;1.37;;
70270;SDS011;57680;54.292;18.598;2022-09-03T01:44:01;4.70;;;1.33;;
70270;SDS011;57680;54.292;18.598;2022-09-03T01:46:46;4.97;;;1.40;;
70270;SDS011;57680;54.292;18.598;2022-09-03T01:49:22;4.23;;;1.77;;
70270;SDS011;57680;54.292;18.598;2022-09-03T01:52:02;4.95;;;1.60;;
70270;SDS011;57680;54.292;18.598;2022-09-03T01:59:51;5.38;;;1.70;;
70270;SDS011;57680;54.292;18.598;2022-09-03T02:02:26;3.13;;;1.00;;
70270;SDS011;57680;54.292;18.598;2022-09-03T02:07:33;3.22;;;0.93;;
70270;SDS011;57680;54.292;18.598;2022-09-03T02:10:03;3.42;;;1.10;;
70270;SDS011;57680;54.292;18.598;2022-09-03T02:12:32;2.55;;;1.08;;
70270;SDS011;57680;54.292;18.598;2022-09-03T02:15:03;2.57;;;0.90;;
70270;SDS011;57680;54.292;18.598;2022-09-03T02:17:31;4.38;;;0.80;;
70270;SDS011;57680;54.292;18.598;2022-09-03T02:20:00;4.68;;;1.02;;
70270;SDS011;57680;54.292;18.598;2022-09-03T02:22:30;4.82;;;1.00;;
70270;SDS011;57680;54.292;18.598;2022-09-03T02:24:56;3.13;;;1.00;;
70270;SDS011;57680;54.292;18.598;2022-09-03T02:27:21;2.63;;;0.90;;
70270;SDS011;57680;54.292;18.598;2022-09-03T02:29:47;4.10;;;0.93;;
70270;SDS011;57680;54.292;18.598;2022-09-03T02:32:12;3.15;;;1.00;;
70270;SDS011;57680;54.292;18.598;2022-09-03T02:34:40;2.70;;;1.00;;
70270;SDS011;57680;54.292;18.598;2022-09-03T02:37:16;4.10;;;1.13;;
70270;SDS011;57680;54.292;18.598;2022-09-03T02:39:43;3.95;;;1.50;;
70270;SDS011;57680;54.292;18.598;2022-09-03T02:42:09;3.60;;;1.30;;
70270;SDS011;57680;54.292;18.598;2022-09-03T02:44:59;3.72;;;1.13;;
70270;SDS011;57680;54.292;18.598;2022-09-03T02:47:28;3.17;;;1.03;;
70270;SDS011;57680;54.292;18.598;2022-09-03T02:49:57;3.45;;;1.20;;
70270;SDS011;57680;54.292;18.598;2022-09-03T02:52:22;3.60;;;1.30;;
70270;SDS011;57680;54.292;18.598;2022-09-03T02:54:48;3.30;;;1.10;;
70270;SDS011;57680;54.292;18.598;2022-09-03T02:57:14;2.30;;;1.00;;
70270;SDS011;57680;54.292;18.598;2022-09-03T02:59:40;3.58;;;1.35;;
70270;SDS011;57680;54.292;18.598;2022-09-03T03:02:11;3.20;;;1.30;;
70270;SDS011;57680;54.292;18.598;2022-09-03T03:04:38;3.65;;;1.23;;
70270;SDS011;57680;54.292;18.598;2022-09-03T03:07:04;3.37;;;1.30;;
70270;SDS011;57680;54.292;18.598;2022-09-03T03:09:30;6.22;;;1.13;;
70270;SDS011;57680;54.292;18.598;2022-09-03T03:11:56;3.75;;;1.30;;
70270;SDS011;57680;54.292;18.598;2022-09-03T03:14:22;3.60;;;0.97;;
70270;SDS011;57680;54.292;18.598;2022-09-03T03:16:48;4.37;;;1.53;;
70270;SDS011;57680;54.292;18.598;2022-09-03T03:19:14;3.58;;;1.42;;
70270;SDS011;57680;54.292;18.598;2022-09-03T03:21:39;3.60;;;1.23;;
70270;SDS011;57680;54.292;18.598;2022-09-03T03:24:05;3.35;;;1.17;;
70270;SDS011;57680;54.292;18.598;2022-09-03T03:26:31;4.45;;;1.10;;
70270;SDS011;57680;54.292;18.598;2022-09-03T03:28:58;3.27;;;1.03;;
70270;SDS011;57680;54.292;18.598;2022-09-03T03:31:25;3.63;;;1.13;;
70270;SDS011;57680;54.292;18.598;2022-09-03T03:33:52;3.70;;;1.20;;
70270;SDS011;57680;54.292;18.598;2022-09-03T03:36:20;3.53;;;1.20;;
70270;SDS011;57680;54.292;18.598;2022-09-03T03:38:46;2.90;;;1.00;;
70270;SDS011;57680;54.292;18.598;2022-09-03T03:41:16;4.15;;;0.88;;
70270;SDS011;57680;54.292;18.598;2022-09-03T03:43:45;2.40;;;0.90;;
70270;SDS011;57680;54.292;18.598;2022-09-03T03:46:12;2.92;;;0.80;;
70270;SDS011;57680;54.292;18.598;2022-09-03T03:48:39;2.35;;;0.80;;
70270;SDS011;57680;54.292;18.598;2022-09-03T03:51:06;3.80;;;1.00;;
70270;SDS011;57680;54.292;18.598;2022-09-03T03:53:33;4.55;;;1.33;;
70270;SDS011;57680;54.292;18.598;2022-09-03T03:56:00;2.63;;;0.82;;
70270;SDS011;57680;54.292;18.598;2022-09-03T03:58:28;3.13;;;0.80;;
70270;SDS011;57680;54.292;18.598;2022-09-03T04:00:55;3.00;;;1.00;;
70270;SDS011;57680;54.292;18.598;2022-09-03T04:03:28;3.50;;;1.10;;
70270;SDS011;57680;54.292;18.598;2022-09-03T04:05:57;2.80;;;1.23;;
70270;SDS011;57680;54.292;18.598;2022-09-03T04:08:25;2.63;;;0.80;;
70270;SDS011;57680;54.292;18.598;2022-09-03T04:10:51;2.80;;;0.90;;
70270;SDS011;57680;54.292;18.598;2022-09-03T04:13:17;3.15;;;0.80;;
70270;SDS011;57680;54.292;18.598;2022-09-03T04:15:43;2.75;;;0.80;;
70270;SDS011;57680;54.292;18.598;2022-09-03T04:18:10;4.07;;;1.10;;
70270;SDS011;57680;54.292;18.598;2022-09-03T04:20:36;2.17;;;0.80;;
70270;SDS011;57680;54.292;18.598;2022-09-03T04:23:01;2.30;;;0.80;;
70270;SDS011;57680;54.292;18.598;2022-09-03T04:25:27;2.43;;;0.80;;
70270;SDS011;57680;54.292;18.598;2022-09-03T04:27:52;2.72;;;0.73;;
70270;SDS011;57680;54.292;18.598;2022-09-03T04:30:18;4.13;;;1.10;;
70270;SDS011;57680;54.292;18.598;2022-09-03T04:32:44;4.33;;;0.90;;
70270;SDS011;57680;54.292;18.598;2022-09-03T04:35:19;2.53;;;0.90;;
70270;SDS011;57680;54.292;18.598;2022-09-03T04:37:45;3.58;;;1.13;;
70270;SDS011;57680;54.292;18.598;2022-09-03T04:40:11;3.37;;;0.80;;
70270;SDS011;57680;54.292;18.598;2022-09-03T04:42:37;2.95;;;1.05;;
70270;SDS011;57680;54.292;18.598;2022-09-03T04:45:02;3.07;;;1.10;;
70270;SDS011;57680;54.292;18.598;2022-09-03T04:47:28;4.35;;;1.15;;
70270;SDS011;57680;54.292;18.598;2022-09-03T04:49:53;2.50;;;1.00;;
70270;SDS011;57680;54.292;18.598;2022-09-03T04:52:19;2.90;;;0.95;;
70270;SDS011;57680;54.292;18.598;2022-09-03T04:54:45;4.38;;;1.20;;
70270;SDS011;57680;54.292;18.598;2022-09-03T04:57:11;4.10;;;1.20;;
70270;SDS011;57680;54.292;18.598;2022-09-03T04:59:37;3.22;;;1.10;;
70270;SDS011;57680;54.292;18.598;2022-09-03T05:02:03;2.43;;;0.90;;
70270;SDS011;57680;54.292;18.598;2022-09-03T05:04:28;3.95;;;1.13;;
70270;SDS011;57680;54.292;18.598;2022-09-03T05:06:54;3.53;;;1.30;;
70270;SDS011;57680;54.292;18.598;2022-09-03T05:09:20;3.03;;;1.00;;
70270;SDS011;57680;54.292;18.598;2022-09-03T05:11:45;3.57;;;1.17;;
70270;SDS011;57680;54.292;18.598;2022-09-03T05:14:11;2.90;;;0.93;;
70270;SDS011;57680;54.292;18.598;2022-09-03T05:16:36;4.75;;;1.20;;
70270;SDS011;57680;54.292;18.598;2022-09-03T05:19:02;3.30;;;1.17;;
70270;SDS011;57680;54.292;18.598;2022-09-03T05:21:30;2.38;;;0.88;;
70270;SDS011;57680;54.292;18.598;2022-09-03T05:23:56;2.00;;;1.00;;
70270;SDS011;57680;54.292;18.598;2022-09-03T05:26:24;2.38;;;0.82;;
70270;SDS011;57680;54.292;18.598;2022-09-03T05:28:52;2.78;;;1.00;;
70270;SDS011;57680;54.292;18.598;2022-09-03T05:31:20;2.90;;;1.07;;
70270;SDS011;57680;54.292;18.598;2022-09-03T05:33:47;1.95;;;0.80;;
70270;SDS011;57680;54.292;18.598;2022-09-03T05:36:16;3.45;;;0.93;;
70270;SDS011;57680;54.292;18.598;2022-09-03T05:38:43;3.78;;;0.90;;
70270;SDS011;57680;54.292;18.598;2022-09-03T05:41:10;3.03;;;0.98;;
70270;SDS011;57680;54.292;18.598;2022-09-03T05:43:37;3.10;;;1.10;;
70270;SDS011;57680;54.292;18.598;2022-09-03T05:46:04;2.65;;;0.88;;
70270;SDS011;57680;54.292;18.598;2022-09-03T05:48:32;2.00;;;0.63;;
70270;SDS011;57680;54.292;18.598;2022-09-03T05:51:00;2.75;;;0.82;;
70270;SDS011;57680;54.292;18.598;2022-09-03T05:53:27;2.10;;;0.80;;
70270;SDS011;57680;54.292;18.598;2022-09-03T05:55:56;1.80;;;0.70;;
70270;SDS011;57680;54.292;18.598;2022-09-03T05:58:23;3.78;;;0.60;;
70270;SDS011;57680;54.292;18.598;2022-09-03T06:00:49;1.98;;;0.60;;
70270;SDS011;57680;54.292;18.598;2022-09-03T06:03:15;1.60;;;0.73;;
70270;SDS011;57680;54.292;18.598;2022-09-03T06:05:48;2.77;;;0.70;;
70270;SDS011;57680;54.292;18.598;2022-09-03T06:08:18;0.98;;;0.50;;
70270;SDS011;57680;54.292;18.598;2022-09-03T06:10:45;2.20;;;0.60;;
70270;SDS011;57680;54.292;18.598;2022-09-03T06:13:11;1.80;;;0.50;;
70270;SDS011;57680;54.292;18.598;2022-09-03T06:15:37;1.55;;;0.70;;
70270;SDS011;57680;54.292;18.598;2022-09-03T06:18:03;1.27;;;0.52;;
70270;SDS011;57680;54.292;18.598;2022-09-03T06:20:29;2.63;;;0.50;;
70270;SDS011;57680;54.292;18.598;2022-09-03T06:22:56;2.08;;;0.70;;
70270;SDS011;57680;54.292;18.598;2022-09-03T06:25:22;2.55;;;0.60;;
70270;SDS011;57680;54.292;18.598;2022-09-03T06:27:48;2.10;;;0.65;;
70270;SDS011;57680;54.292;18.598;2022-09-03T06:30:15;1.73;;;0.60;;
70270;SDS011;57680;54.292;18.598;2022-09-03T06:32:47;2.63;;;0.60;;
70270;SDS011;57680;54.292;18.598;2022-09-03T06:35:16;1.50;;;0.60;;
70270;SDS011;57680;54.292;18.598;2022-09-03T06:37:42;1.77;;;0.40;;
70270;SDS011;57680;54.292;18.598;2022-09-03T06:40:08;3.87;;;0.30;;
70270;SDS011;57680;54.292;18.598;2022-09-03T06:42:37;2.15;;;0.60;;
70270;SDS011;57680;54.292;18.598;2022-09-03T06:45:07;2.58;;;0.52;;
70270;SDS011;57680;54.292;18.598;2022-09-03T06:47:33;1.98;;;0.60;;
70270;SDS011;57680;54.292;18.598;2022-09-03T06:49:59;1.27;;;0.50;;
70270;SDS011;57680;54.292;18.598;2022-09-03T06:52:26;2.67;;;0.50;;
70270;SDS011;57680;54.292;18.598;2022-09-03T06:54:52;2.72;;;0.60;;
70270;SDS011;57680;54.292;18.598;2022-09-03T06:57:17;2.60;;;0.50;;
70270;SDS011;57680;54.292;18.598;2022-09-03T06:59:43;1.75;;;0.50;;
70270;SDS011;57680;54.292;18.598;2022-09-03T07:02:09;1.43;;;0.50;;
70270;SDS011;57680;54.292;18.598;2022-09-03T07:04:34;1.30;;;0.60;;
70270;SDS011;57680;54.292;18.598;2022-09-03T07:07:00;2.70;;;0.67;;
70270;SDS011;57680;54.292;18.598;2022-09-03T07:09:26;1.65;;;0.50;;
70270;SDS011;57680;54.292;18.598;2022-09-03T07:11:52;1.77;;;0.60;;
70270;SDS011;57680;54.292;18.598;2022-09-03T07:14:18;2.43;;;0.60;;
70270;SDS011;57680;54.292;18.598;2022-09-03T07:16:45;1.13;;;0.40;;
70270;SDS011;57680;54.292;18.598;2022-09-03T07:19:12;2.30;;;0.50;;
70270;SDS011;57680;54.292;18.598;2022-09-03T07:21:38;3.55;;;0.57;;
70270;SDS011;57680;54.292;18.598;2022-09-03T07:24:07;1.08;;;0.40;;
70270;SDS011;57680;54.292;18.598;2022-09-03T07:26:37;2.50;;;0.50;;
70270;SDS011;57680;54.292;18.598;2022-09-03T07:29:05;1.15;;;0.45;;
70270;SDS011;57680;54.292;18.598;2022-09-03T07:31:37;2.58;;;0.57;;
70270;SDS011;57680;54.292;18.598;2022-09-03T07:34:04;1.23;;;0.50;;
70270;SDS011;57680;54.292;18.598;2022-09-03T07:36:37;1.13;;;0.43;;
70270;SDS011;57680;54.292;18.598;2022-09-03T07:39:06;1.60;;;0.50;;
70270;SDS011;57680;54.292;18.598;2022-09-03T07:41:32;2.33;;;0.50;;
70270;SDS011;57680;54.292;18.598;2022-09-03T07:43:58;1.30;;;0.50;;
70270;SDS011;57680;54.292;18.598;2022-09-03T07:46:30;2.10;;;0.40;;
70270;SDS011;57680;54.292;18.598;2022-09-03T07:48:57;2.50;;;0.50;;
70270;SDS011;57680;54.292;18.598;2022-09-03T07:51:27;1.30;;;0.50;;
70270;SDS011;57680;54.292;18.598;2022-09-03T07:53:55;1.30;;;0.40;;
70270;SDS011;57680;54.292;18.598;2022-09-03T07:56:22;2.25;;;0.52;;
70270;SDS011;57680;54.292;18.598;2022-09-03T07:58:49;1.70;;;0.43;;
70270;SDS011;57680;54.292;18.598;2022-09-03T08:01:16;1.38;;;0.40;;
70270;SDS011;57680;54.292;18.598;2022-09-03T08:03:44;1.83;;;0.57;;
70270;SDS011;57680;54.292;18.598;2022-09-03T08:06:11;2.70;;;0.50;;
70270;SDS011;57680;54.292;18.598;2022-09-03T08:08:38;1.73;;;0.40;;
70270;SDS011;57680;54.292;18.598;2022-09-03T08:13:37;2.28;;;0.57;;
70270;SDS011;57680;54.292;18.598;2022-09-03T08:16:08;2.08;;;0.60;;
70270;SDS011;57680;54.292;18.598;2022-09-03T08:18:34;3.33;;;0.40;;
70270;SDS011;57680;54.292;18.598;2022-09-03T08:21:10;2.38;;;0.60;;
70270;SDS011;57680;54.292;18.598;2022-09-03T08:23:41;2.45;;;0.60;;
70270;SDS011;57680;54.292;18.598;2022-09-03T08:26:09;1.60;;;0.60;;
70270;SDS011;57680;54.292;18.598;2022-09-03T08:28:35;1.23;;;0.40;;
70270;SDS011;57680;54.292;18.598;2022-09-03T08:33:30;1.17;;;0.55;;
70270;SDS011;57680;54.292;18.598;2022-09-03T08:36:06;1.33;;;0.50;;
70270;SDS011;57680;54.292;18.598;2022-09-03T08:38:33;1.52;;;0.60;;
70270;SDS011;57680;54.292;18.598;2022-09-03T08:41:09;3.13;;;0.60;;
70270;SDS011;57680;54.292;18.598;2022-09-03T08:44:05;1.40;;;0.50;;
70270;SDS011;57680;54.292;18.598;2022-09-03T08:46:50;1.75;;;0.50;;
70270;SDS011;57680;54.292;18.598;2022-09-03T08:49:23;1.10;;;0.50;;
70270;SDS011;57680;54.292;18.598;2022-09-03T08:51:56;1.45;;;0.40;;
70270;SDS011;57680;54.292;18.598;2022-09-03T08:54:25;1.40;;;0.60;;
70270;SDS011;57680;54.292;18.598;2022-09-03T08:56:54;1.30;;;0.50;;
70270;SDS011;57680;54.292;18.598;2022-09-03T08:59:23;2.03;;;0.45;;
70270;SDS011;57680;54.292;18.598;2022-09-03T09:02:51;1.95;;;0.70;;
70270;SDS011;57680;54.292;18.598;2022-09-03T09:05:16;2.45;;;0.50;;
70270;SDS011;57680;54.292;18.598;2022-09-03T09:10:35;2.37;;;0.50;;
70270;SDS011;57680;54.292;18.598;2022-09-03T09:13:27;1.55;;;0.50;;
70270;SDS011;57680;54.292;18.598;2022-09-03T09:21:19;1.10;;;0.50;;
70270;SDS011;57680;54.292;18.598;2022-09-03T09:24:23;1.40;;;0.50;;
70270;SDS011;57680;54.292;18.598;2022-09-03T09:27:02;2.08;;;0.60;;
70270;SDS011;57680;54.292;18.598;2022-09-03T09:29:31;3.03;;;0.63;;
70270;SDS011;57680;54.292;18.598;2022-09-03T09:31:57;1.37;;;0.60;;
70270;SDS011;57680;54.292;18.598;2022-09-03T09:34:23;1.70;;;0.52;;
70270;SDS011;57680;54.292;18.598;2022-09-03T09:36:53;1.43;;;0.50;;
70270;SDS011;57680;54.292;18.598;2022-09-03T09:39:19;1.23;;;0.50;;
70270;SDS011;57680;54.292;18.598;2022-09-03T09:41:58;1.33;;;0.55;;
70270;SDS011;57680;54.292;18.598;2022-09-03T09:44:36;2.30;;;0.50;;
70270;SDS011;57680;54.292;18.598;2022-09-03T09:49:37;2.07;;;0.60;;
70270;SDS011;57680;54.292;18.598;2022-09-03T09:52:24;1.15;;;0.50;;
70270;SDS011;57680;54.292;18.598;2022-09-03T09:54:53;1.42;;;0.52;;
70270;SDS011;57680;54.292;18.598;2022-09-03T09:57:32;1.27;;;0.50;;
70270;SDS011;57680;54.292;18.598;2022-09-03T10:00:11;1.60;;;0.60;;
70270;SDS011;57680;54.292;18.598;2022-09-03T10:02:45;1.20;;;0.60;;
70270;SDS011;57680;54.292;18.598;2022-09-03T10:05:13;1.58;;;0.60;;
70270;SDS011;57680;54.292;18.598;2022-09-03T10:07:53;2.55;;;0.60;;
70270;SDS011;57680;54.292;18.598;2022-09-03T10:10:23;1.10;;;0.50;;
70270;SDS011;57680;54.292;18.598;2022-09-03T10:13:00;1.85;;;0.55;;
70270;SDS011;57680;54.292;18.598;2022-09-03T10:15:32;1.93;;;0.60;;
70270;SDS011;57680;54.292;18.598;2022-09-03T10:18:29;1.00;;;0.50;;
70270;SDS011;57680;54.292;18.598;2022-09-03T10:21:07;1.27;;;0.50;;
70270;SDS011;57680;54.292;18.598;2022-09-03T10:23:47;1.88;;;0.60;;
70270;SDS011;57680;54.292;18.598;2022-09-03T10:26:20;1.42;;;0.55;;
70270;SDS011;57680;54.292;18.598;2022-09-03T10:28:55;1.30;;;0.70;;
70270;SDS011;57680;54.292;18.598;2022-09-03T10:34:17;1.83;;;0.55;;
70270;SDS011;57680;54.292;18.598;2022-09-03T10:50:47;1.25;;;0.40;;
70270;SDS011;57680;54.292;18.598;2022-09-03T11:01:21;3.08;;;0.60;;
70270;SDS011;57680;54.292;18.598;2022-09-03T11:03:55;1.70;;;0.45;;
70270;SDS011;57680;54.292;18.598;2022-09-03T11:06:39;1.58;;;0.70;;
70270;SDS011;57680;54.292;18.598;2022-09-03T11:11:52;2.75;;;0.85;;
70270;SDS011;57680;54.292;18.598;2022-09-03T11:14:42;2.28;;;0.50;;
70270;SDS011;57680;54.292;18.598;2022-09-03T11:17:12;1.50;;;0.60;;
70270;SDS011;57680;54.292;18.598;2022-09-03T11:19:46;1.52;;;0.75;;
70270;SDS011;57680;54.292;18.598;2022-09-03T11:22:15;2.70;;;0.80;;
70270;SDS011;57680;54.292;18.598;2022-09-03T11:24:43;1.17;;;0.60;;
70270;SDS011;57680;54.292;18.598;2022-09-03T11:30:02;3.00;;;0.70;;
70270;SDS011;57680;54.292;18.598;2022-09-03T11:32:48;1.60;;;0.52;;
70270;SDS011;57680;54.292;18.598;2022-09-03T11:37:59;1.50;;;0.55;;
70270;SDS011;57680;54.292;18.598;2022-09-03T11:43:31;2.78;;;0.63;;
70270;SDS011;57680;54.292;18.598;2022-09-03T11:46:02;1.95;;;0.63;;
70270;SDS011;57680;54.292;18.598;2022-09-03T11:48:37;1.43;;;0.70;;
70270;SDS011;57680;54.292;18.598;2022-09-03T11:51:20;1.17;;;0.50;;
70270;SDS011;57680;54.292;18.598;2022-09-03T11:56:47;1.35;;;0.63;;
70270;SDS011;57680;54.292;18.598;2022-09-03T12:01:57;1.50;;;0.40;;
70270;SDS011;57680;54.292;18.598;2022-09-03T12:20:43;1.48;;;0.63;;
70270;SDS011;57680;54.292;18.598;2022-09-03T12:23:10;2.15;;;0.50;;
70270;SDS011;57680;54.292;18.598;2022-09-03T12:25:42;2.45;;;0.60;;
70270;SDS011;57680;54.292;18.598;2022-09-03T12:28:11;1.83;;;0.60;;
70270;SDS011;57680;54.292;18.598;2022-09-03T12:30:41;1.42;;;0.40;;
70270;SDS011;57680;54.292;18.598;2022-09-03T12:33:07;1.57;;;0.50;;
70270;SDS011;57680;54.292;18.598;2022-09-03T12:35:35;2.17;;;0.70;;
70270;SDS011;57680;54.292;18.598;2022-09-03T12:38:00;1.77;;;0.50;;
70270;SDS011;57680;54.292;18.598;2022-09-03T12:40:27;2.73;;;0.40;;
70270;SDS011;57680;54.292;18.598;2022-09-03T12:42:54;1.70;;;0.35;;
70270;SDS011;57680;54.292;18.598;2022-09-03T12:45:22;1.30;;;0.40;;
70270;SDS011;57680;54.292;18.598;2022-09-03T12:47:49;1.70;;;0.60;;
70270;SDS011;57680;54.292;18.598;2022-09-03T12:50:20;1.40;;;0.40;;
70270;SDS011;57680;54.292;18.598;2022-09-03T12:55:45;3.03;;;0.65;;
70270;SDS011;57680;54.292;18.598;2022-09-03T13:00:50;1.63;;;0.60;;
70270;SDS011;57680;54.292;18.598;2022-09-03T13:03:29;2.85;;;0.60;;
70270;SDS011;57680;54.292;18.598;2022-09-03T13:06:02;1.73;;;0.63;;
70270;SDS011;57680;54.292;18.598;2022-09-03T13:08:54;3.03;;;1.10;;
70270;SDS011;57680;54.292;18.598;2022-09-03T13:11:24;2.60;;;0.80;;
70270;SDS011;57680;54.292;18.598;2022-09-03T13:13:52;1.47;;;0.60;;
70270;SDS011;57680;54.292;18.598;2022-09-03T13:30:10;1.10;;;0.50;;
70270;SDS011;57680;54.292;18.598;2022-09-03T13:38:27;1.42;;;0.50;;
70270;SDS011;57680;54.292;18.598;2022-09-03T13:41:15;1.30;;;0.40;;
70270;SDS011;57680;54.292;18.598;2022-09-03T13:44:05;1.60;;;0.50;;
70270;SDS011;57680;54.292;18.598;2022-09-03T13:46:45;3.33;;;0.73;;
70270;SDS011;57680;54.292;18.598;2022-09-03T13:52:38;1.58;;;0.60;;
70270;SDS011;57680;54.292;18.598;2022-09-03T14:00:37;1.83;;;0.60;;
70270;SDS011;57680;54.292;18.598;2022-09-03T14:03:16;1.50;;;0.52;;
70270;SDS011;57680;54.292;18.598;2022-09-03T14:06:03;1.30;;;0.50;;
70270;SDS011;57680;54.292;18.598;2022-09-03T14:24:58;3.60;;;0.90;;
70270;SDS011;57680;54.292;18.598;2022-09-03T14:27:30;2.40;;;0.60;;
70270;SDS011;57680;54.292;18.598;2022-09-03T14:29:58;2.17;;;0.75;;
70270;SDS011;57680;54.292;18.598;2022-09-03T14:32:35;1.65;;;0.52;;
70270;SDS011;57680;54.292;18.598;2022-09-03T14:38:18;1.63;;;0.80;;
70270;SDS011;57680;54.292;18.598;2022-09-03T14:44:21;2.22;;;0.60;;
70270;SDS011;57680;54.292;18.598;2022-09-03T14:47:18;3.10;;;0.95;;
70270;SDS011;57680;54.292;18.598;2022-09-03T14:50:34;2.47;;;0.70;;
70270;SDS011;57680;54.292;18.598;2022-09-03T14:58:34;2.15;;;0.60;;
70270;SDS011;57680;54.292;18.598;2022-09-03T15:01:39;1.80;;;0.70;;
70270;SDS011;57680;54.292;18.598;2022-09-03T15:13:41;3.25;;;1.00;;
70270;SDS011;57680;54.292;18.598;2022-09-03T15:18:25;1.70;;;0.73;;
70270;SDS011;57680;54.292;18.598;2022-09-03T15:21:15;2.97;;;0.70;;
70270;SDS011;57680;54.292;18.598;2022-09-03T15:26:24;3.90;;;0.88;;
70270;SDS011;57680;54.292;18.598;2022-09-03T15:31:50;2.38;;;0.77;;
70270;SDS011;57680;54.292;18.598;2022-09-03T15:37:15;2.10;;;0.60;;
70270;SDS011;57680;54.292;18.598;2022-09-03T15:39:45;1.48;;;0.73;;
70270;SDS011;57680;54.292;18.598;2022-09-03T15:42:20;2.15;;;0.70;;
70270;SDS011;57680;54.292;18.598;2022-09-03T15:44:52;2.20;;;0.60;;
70270;SDS011;57680;54.292;18.598;2022-09-03T15:50:15;2.73;;;0.70;;
70270;SDS011;57680;54.292;18.598;2022-09-03T15:55:43;5.85;;;0.88;;
70270;SDS011;57680;54.292;18.598;2022-09-03T15:58:13;3.20;;;0.95;;
70270;SDS011;57680;54.292;18.598;2022-09-03T16:03:10;2.07;;;0.70;;
70270;SDS011;57680;54.292;18.598;2022-09-03T16:11:55;2.70;;;0.80;;
70270;SDS011;57680;54.292;18.598;2022-09-03T16:14:24;10.87;;;1.40;;
70270;SDS011;57680;54.292;18.598;2022-09-03T16:17:18;2.73;;;0.83;;
70270;SDS011;57680;54.292;18.598;2022-09-03T16:25:23;2.38;;;0.65;;
70270;SDS011;57680;54.292;18.598;2022-09-03T16:27:57;2.78;;;0.65;;
70270;SDS011;57680;54.292;18.598;2022-09-03T16:41:31;2.08;;;0.90;;
70270;SDS011;57680;54.292;18.598;2022-09-03T16:44:14;3.33;;;1.30;;
70270;SDS011;57680;54.292;18.598;2022-09-03T16:55:27;2.63;;;0.88;;
70270;SDS011;57680;54.292;18.598;2022-09-03T16:58:01;2.90;;;1.00;;
70270;SDS011;57680;54.292;18.598;2022-09-03T17:25:39;3.60;;;1.10;;
70270;SDS011;57680;54.292;18.598;2022-09-03T17:34:01;2.90;;;1.30;;
70270;SDS011;57680;54.292;18.598;2022-09-03T17:36:37;3.15;;;1.10;;
70270;SDS011;57680;54.292;18.598;2022-09-03T17:42:00;3.78;;;1.60;;
70270;SDS011;57680;54.292;18.598;2022-09-03T17:44:42;4.20;;;1.48;;
70270;SDS011;57680;54.292;18.598;2022-09-03T17:55:16;4.10;;;1.80;;
70270;SDS011;57680;54.292;18.598;2022-09-03T17:57:53;5.75;;;2.42;;
70270;SDS011;57680;54.292;18.598;2022-09-03T18:00:51;6.20;;;2.95;;
70270;SDS011;57680;54.292;18.598;2022-09-03T18:03:54;5.60;;;2.40;;
70270;SDS011;57680;54.292;18.598;2022-09-03T18:14:57;6.95;;;2.78;;
70270;SDS011;57680;54.292;18.598;2022-09-03T18:17:43;8.55;;;3.47;;
70270;SDS011;57680;54.292;18.598;2022-09-03T18:20:22;8.03;;;3.33;;
70270;SDS011;57680;54.292;18.598;2022-09-03T18:23:24;7.95;;;2.95;;
70270;SDS011;57680;54.292;18.598;2022-09-03T18:26:14;5.88;;;2.80;;
70270;SDS011;57680;54.292;18.598;2022-09-03T18:29:11;8.73;;;3.75;;
70270;SDS011;57680;54.292;18.598;2022-09-03T18:31:57;8.82;;;3.90;;
70270;SDS011;57680;54.292;18.598;2022-09-03T18:34:42;7.87;;;3.60;;
70270;SDS011;57680;54.292;18.598;2022-09-03T18:37:29;8.38;;;4.22;;
70270;SDS011;57680;54.292;18.598;2022-09-03T18:40:15;9.90;;;3.63;;
70270;SDS011;57680;54.292;18.598;2022-09-03T18:43:13;7.53;;;3.63;;
70270;SDS011;57680;54.292;18.598;2022-09-03T18:46:12;10.27;;;3.55;;
70270;SDS011;57680;54.292;18.598;2022-09-03T18:49:24;9.37;;;3.80;;
70270;SDS011;57680;54.292;18.598;2022-09-03T18:52:18;7.88;;;3.15;;
70270;SDS011;57680;54.292;18.598;2022-09-03T18:55:19;7.95;;;3.33;;
70270;SDS011;57680;54.292;18.598;2022-09-03T18:58:37;6.90;;;3.10;;
70270;SDS011;57680;54.292;18.598;2022-09-03T19:01:35;8.27;;;3.80;;
70270;SDS011;57680;54.292;18.598;2022-09-03T19:11:00;9.52;;;3.38;;
70270;SDS011;57680;54.292;18.598;2022-09-03T19:13:50;8.52;;;2.90;;
70270;SDS011;57680;54.292;18.598;2022-09-03T19:19:46;7.70;;;3.10;;
70270;SDS011;57680;54.292;18.598;2022-09-03T19:22:51;6.47;;;2.40;;
70270;SDS011;57680;54.292;18.598;2022-09-03T19:25:35;4.97;;;2.28;;
70270;SDS011;57680;54.292;18.598;2022-09-03T19:28:21;5.40;;;2.60;;
70270;SDS011;57680;54.292;18.598;2022-09-03T19:39:59;5.07;;;1.77;;
70270;SDS011;57680;54.292;18.598;2022-09-03T19:55:01;5.00;;;1.58;;
70270;SDS011;57680;54.292;18.598;2022-09-03T19:57:46;4.50;;;1.80;;
70270;SDS011;57680;54.292;18.598;2022-09-03T20:00:36;5.03;;;1.60;;
70270;SDS011;57680;54.292;18.598;2022-09-03T20:03:21;5.20;;;1.90;;
70270;SDS011;57680;54.292;18.598;2022-09-03T20:06:07;4.50;;;1.65;;
70270;SDS011;57680;54.292;18.598;2022-09-03T20:08:52;6.13;;;1.80;;
70270;SDS011;57680;54.292;18.598;2022-09-03T20:11:43;4.78;;;1.70;;
70270;SDS011;57680;54.292;18.598;2022-09-03T20:14:12;4.75;;;1.63;;
70270;SDS011;57680;54.292;18.598;2022-09-03T20:30:00;4.07;;;1.33;;
70270;SDS011;57680;54.292;18.598;2022-09-03T20:37:53;3.58;;;1.52;;
70270;SDS011;57680;54.292;18.598;2022-09-03T20:52:03;5.72;;;1.80;;
70270;SDS011;57680;54.292;18.598;2022-09-03T21:00:15;3.40;;;1.60;;
70270;SDS011;57680;54.292;18.598;2022-09-03T21:02:57;3.20;;;1.35;;
70270;SDS011;57680;54.292;18.598;2022-09-03T21:05:26;3.60;;;1.55;;
70270;SDS011;57680;54.292;18.598;2022-09-03T21:08:15;3.20;;;1.40;;
70270;SDS011;57680;54.292;18.598;2022-09-03T21:11:10;3.77;;;1.50;;
70270;SDS011;57680;54.292;18.598;2022-09-03T21:19:18;4.05;;;1.20;;
70270;SDS011;57680;54.292;18.598;2022-09-03T21:21:58;3.92;;;1.67;;
70270;SDS011;57680;54.292;18.598;2022-09-03T21:24:31;3.97;;;1.50;;